createdAt,value
2018-01-14T00:00:21.578Z,15.88
2018-01-14T00:02:48.155Z,17.92
2018-01-14T00:05:14.732Z,18.23
2018-01-14T00:07:41.324Z,17.30
2018-01-14T00:10:07.898Z,17.08
2018-01-14T00:12:34.481Z,17.98
2018-01-14T00:15:01.066Z,16.83
2018-01-14T00:17:27.651Z,19.37
2018-01-14T00:19:54.231Z,17.15
2018-01-14T00:22:21.079Z,20.12
2018-01-14T00:24:47.657Z,19.12
2018-01-14T00:27:14.246Z,16.58
2018-01-14T00:29:40.831Z,17.45
2018-01-14T00:32:07.410Z,17.45
2018-01-14T00:34:33.990Z,16.87
2018-01-14T00:37:00.576Z,18.48
2018-01-14T00:39:27.155Z,17.60
2018-01-14T00:41:53.955Z,17.40
2018-01-14T00:44:20.528Z,21.37
2018-01-14T00:46:47.114Z,18.12
2018-01-14T00:49:14.081Z,19.50
2018-01-14T00:51:40.659Z,21.52
2018-01-14T00:54:07.240Z,19.23
2018-01-14T00:56:33.838Z,18.92
2018-01-14T00:59:00.423Z,17.40
2018-01-14T01:01:27.014Z,17.73
2018-01-14T01:03:53.602Z,18.83
2018-01-14T01:06:20.184Z,16.92
2018-01-14T01:08:46.758Z,17.48
2018-01-14T01:11:13.346Z,19.02
2018-01-14T01:13:39.926Z,22.62
2018-01-14T01:16:06.504Z,14.90
2018-01-14T01:18:33.109Z,17.02
2018-01-14T01:20:59.690Z,20.73
2018-01-14T01:23:26.276Z,18.27
2018-01-14T01:25:52.859Z,16.98
2018-01-14T01:28:19.439Z,17.55
2018-01-14T01:30:46.015Z,19.85
2018-01-14T01:33:12.603Z,16.67
2018-01-14T01:35:39.178Z,20.42
2018-01-14T01:38:05.879Z,14.68
2018-01-14T01:40:32.463Z,20.45
2018-01-14T01:42:59.042Z,18.15
2018-01-14T01:45:25.630Z,18.20
2018-01-14T01:47:52.208Z,19.67
2018-01-14T01:50:18.830Z,18.45
2018-01-14T01:52:45.406Z,17.33
2018-01-14T01:55:11.987Z,19.77
2018-01-14T01:57:38.591Z,23.83
2018-01-14T02:00:05.167Z,21.00
2018-01-14T02:02:31.747Z,17.08
2018-01-14T02:04:58.352Z,18.17
2018-01-14T02:07:24.927Z,16.48
2018-01-14T02:09:51.505Z,17.83
2018-01-14T02:12:18.099Z,17.42
2018-01-14T02:14:44.679Z,20.83
2018-01-14T02:17:11.250Z,23.05
2018-01-14T02:19:37.863Z,19.77
2018-01-14T02:22:04.427Z,18.55
2018-01-14T02:24:31.012Z,17.37
2018-01-14T02:26:57.590Z,20.80
2018-01-14T02:29:24.217Z,17.30
2018-01-14T02:31:50.749Z,16.23
2018-01-14T02:34:17.322Z,17.80
2018-01-14T02:36:43.902Z,19.00
2018-01-14T02:39:10.496Z,15.35
2018-01-14T02:41:37.079Z,18.08
2018-01-14T02:44:03.662Z,16.62
2018-01-14T02:46:30.254Z,17.70
2018-01-14T02:48:56.839Z,19.45
2018-01-14T02:51:23.418Z,22.87
2018-01-14T02:53:49.998Z,22.62
2018-01-14T02:56:16.623Z,20.88
2018-01-14T02:58:43.202Z,19.27
2018-01-14T03:01:09.775Z,22.62
2018-01-14T03:03:36.359Z,19.25
2018-01-14T03:06:02.959Z,19.37
2018-01-14T03:08:29.533Z,16.60
2018-01-14T03:10:56.102Z,18.65
2018-01-14T03:13:22.703Z,18.55
2018-01-14T03:15:49.284Z,18.50
2018-01-14T03:18:16.114Z,19.15
2018-01-14T03:20:42.699Z,20.83
2018-01-14T03:23:09.278Z,19.10
2018-01-14T03:25:36.219Z,15.43
2018-01-14T03:28:02.790Z,22.55
2018-01-14T03:30:29.379Z,22.87
2018-01-14T03:32:55.983Z,19.02
2018-01-14T03:35:22.565Z,24.15
2018-01-14T03:37:49.147Z,25.27
2018-01-14T03:40:15.747Z,20.65
2018-01-14T03:42:42.326Z,18.30
2018-01-14T03:45:08.912Z,22.90
2018-01-14T03:47:35.487Z,19.42
2018-01-14T03:50:02.166Z,19.92
2018-01-14T03:52:28.748Z,20.80
2018-01-14T03:54:55.335Z,21.20
2018-01-14T03:57:22.286Z,19.05
2018-01-14T03:59:48.864Z,22.00
2018-01-14T04:02:15.438Z,22.40
2018-01-14T04:04:42.033Z,24.42
2018-01-14T04:07:08.602Z,21.85
2018-01-14T04:09:35.170Z,21.08
2018-01-14T04:12:01.865Z,19.87
2018-01-14T04:14:28.439Z,22.67
2018-01-14T04:16:55.015Z,19.83
2018-01-14T04:19:22.622Z,19.73
2018-01-14T04:21:49.198Z,27.15
2018-01-14T04:24:15.778Z,23.20
2018-01-14T04:26:42.830Z,21.33
2018-01-14T04:29:09.406Z,23.62
2018-01-14T04:31:35.990Z,21.80
2018-01-14T04:34:02.598Z,21.02
2018-01-14T04:36:29.180Z,23.05
2018-01-14T04:38:55.758Z,23.60
2018-01-14T04:41:22.349Z,22.17
2018-01-14T04:43:48.914Z,22.52
2018-01-14T04:46:15.744Z,21.92
2018-01-14T04:48:42.299Z,23.40
2018-01-14T04:51:08.875Z,21.62
2018-01-14T04:53:35.458Z,24.40
2018-01-14T04:56:02.046Z,24.50
2018-01-14T04:58:28.631Z,21.95
2018-01-14T05:00:55.215Z,23.95
2018-01-14T05:03:22.098Z,26.85
2018-01-14T05:05:48.677Z,23.08
2018-01-14T05:08:15.255Z,26.50
2018-01-14T05:10:41.847Z,27.02
2018-01-14T05:13:08.431Z,26.37
2018-01-14T05:15:35.031Z,25.58
2018-01-14T05:18:01.606Z,20.08
2018-01-14T05:20:28.194Z,25.95
2018-01-14T05:22:54.784Z,26.37
2018-01-14T05:25:21.358Z,25.00
2018-01-14T05:27:47.934Z,23.85
2018-01-14T05:30:14.532Z,21.62
2018-01-14T05:32:41.107Z,22.77
2018-01-14T05:35:07.697Z,21.05
2018-01-14T05:37:34.283Z,24.17
2018-01-14T05:40:00.864Z,29.67
2018-01-14T05:42:27.443Z,24.37
2018-01-14T05:44:54.365Z,24.80
2018-01-14T05:47:20.943Z,22.62
2018-01-14T05:49:47.522Z,27.05
2018-01-14T05:52:14.111Z,23.17
2018-01-14T05:54:40.694Z,25.17
2018-01-14T05:57:07.283Z,23.35
2018-01-14T05:59:33.855Z,27.20
2018-01-14T06:02:00.438Z,24.02
2018-01-14T06:04:27.015Z,30.98
2018-01-14T06:06:53.635Z,22.10
2018-01-14T06:09:20.215Z,22.35
2018-01-14T06:11:46.793Z,24.58
2018-01-14T06:14:13.394Z,26.58
2018-01-14T06:16:39.975Z,22.15
2018-01-14T06:19:06.566Z,25.73
2018-01-14T06:21:33.455Z,31.52
2018-01-14T06:24:00.039Z,24.02
2018-01-14T06:26:26.619Z,22.48
2018-01-14T06:28:53.507Z,24.73
2018-01-14T06:31:20.087Z,25.83
2018-01-14T06:33:46.667Z,23.62
2018-01-14T06:36:13.255Z,26.58
2018-01-14T06:38:39.832Z,28.40
2018-01-14T06:41:06.408Z,26.87
2018-01-14T06:43:33.024Z,24.65
2018-01-14T06:45:59.608Z,29.83
2018-01-14T06:48:26.182Z,29.27
2018-01-14T06:50:52.871Z,28.33
2018-01-14T06:53:19.459Z,27.05
2018-01-14T06:55:46.035Z,29.05
2018-01-14T06:58:12.643Z,32.35
2018-01-14T07:00:39.223Z,27.27
2018-01-14T07:03:05.806Z,27.27
2018-01-14T07:05:32.409Z,31.00
2018-01-14T07:07:58.990Z,29.80
2018-01-14T07:10:25.571Z,28.65
2018-01-14T07:12:52.163Z,30.17
2018-01-14T07:15:18.744Z,27.50
2018-01-14T07:17:45.327Z,29.80
2018-01-14T07:20:11.932Z,30.27
2018-01-14T07:22:38.509Z,28.95
2018-01-14T07:25:05.112Z,28.90
2018-01-14T07:27:31.671Z,29.70
2018-01-14T07:29:58.252Z,25.98
2018-01-14T07:32:24.834Z,34.22
2018-01-14T07:34:51.750Z,30.95
2018-01-14T07:37:18.323Z,31.65
2018-01-14T07:39:44.902Z,34.47
2018-01-14T07:42:11.503Z,33.25
2018-01-14T07:44:38.087Z,35.30
2018-01-14T07:47:04.658Z,33.88
2018-01-14T07:49:31.467Z,27.42
2018-01-14T07:51:58.042Z,29.80
2018-01-14T07:54:24.632Z,31.23
2018-01-14T07:56:51.218Z,29.23
2018-01-14T07:59:17.807Z,29.17
2018-01-14T08:01:44.386Z,33.17
2018-01-14T08:04:10.962Z,30.48
2018-01-14T08:06:37.562Z,27.90
2018-01-14T08:09:04.142Z,34.70
2018-01-14T08:11:30.724Z,32.58
2018-01-14T08:13:57.308Z,30.75
2018-01-14T08:16:23.882Z,30.37
2018-01-14T08:18:50.783Z,27.67
2018-01-14T08:21:17.366Z,32.35
2018-01-14T08:23:43.943Z,30.70
2018-01-14T08:26:10.542Z,29.42
2018-01-14T08:28:37.334Z,32.60
2018-01-14T08:31:03.894Z,29.80
2018-01-14T08:33:30.931Z,26.95
2018-01-14T08:35:57.545Z,30.65
2018-01-14T08:38:24.124Z,30.77
2018-01-14T08:40:50.731Z,35.47
2018-01-14T08:43:17.319Z,36.35
2018-01-14T08:45:43.899Z,25.85
2018-01-14T08:48:10.924Z,27.60
2018-01-14T08:50:38.004Z,27.35
2018-01-14T08:53:04.599Z,27.73
2018-01-14T08:55:31.617Z,28.40
2018-01-14T08:57:58.166Z,33.95
2018-01-14T09:00:24.824Z,28.00
2018-01-14T09:02:51.383Z,26.15
2018-01-14T09:05:18.025Z,28.73
2018-01-14T09:07:44.599Z,29.70
2018-01-14T09:10:11.224Z,24.75
2018-01-14T09:12:37.795Z,31.67
2018-01-14T09:15:04.783Z,28.27
2018-01-14T09:17:31.378Z,32.08
2018-01-14T09:19:57.961Z,26.17
2018-01-14T09:22:24.619Z,26.48
2018-01-14T09:24:51.332Z,27.35
2018-01-14T09:27:17.927Z,27.83
2018-01-14T09:29:44.508Z,27.37
2018-01-14T09:32:11.142Z,23.90
2018-01-14T09:34:37.714Z,26.35
2018-01-14T09:37:04.286Z,31.15
2018-01-14T09:39:30.866Z,30.70
2018-01-14T09:41:57.460Z,32.90
2018-01-14T09:44:24.044Z,28.10
2018-01-14T09:46:50.627Z,28.83
2018-01-14T09:49:17.351Z,24.75
2018-01-14T09:51:43.919Z,27.02
2018-01-14T09:54:10.503Z,24.40
2018-01-14T09:56:37.099Z,28.62
2018-01-14T09:59:03.682Z,28.90
2018-01-14T10:01:30.288Z,29.75
2018-01-14T10:03:56.872Z,26.62
2018-01-14T10:06:23.455Z,27.58
2018-01-14T10:08:50.232Z,29.58
2018-01-14T10:11:24.157Z,25.20
2018-01-14T10:13:51.775Z,21.77
2018-01-14T10:16:18.335Z,24.63
2018-01-14T10:18:44.925Z,26.35
2018-01-14T10:21:11.519Z,25.67
2018-01-14T10:23:38.505Z,27.80
2018-01-14T10:26:05.083Z,26.40
2018-01-14T10:28:31.682Z,26.27
2018-01-14T10:30:58.266Z,30.05
2018-01-14T10:33:24.856Z,25.75
2018-01-14T10:35:51.477Z,24.83
2018-01-14T10:38:18.044Z,31.48
2018-01-14T10:40:44.631Z,30.62
2018-01-14T10:43:11.210Z,27.15
2018-01-14T10:45:37.799Z,30.17
2018-01-14T10:48:04.393Z,24.90
2018-01-14T10:50:30.989Z,25.40
2018-01-14T10:52:57.579Z,26.67
2018-01-14T10:55:24.174Z,30.55
2018-01-14T10:57:50.878Z,26.27
2018-01-14T11:00:17.457Z,28.30
2018-01-14T11:02:44.038Z,26.33
2018-01-14T11:05:10.743Z,26.40
2018-01-14T11:07:37.342Z,26.53
2018-01-14T11:10:03.915Z,21.77
2018-01-14T11:12:30.751Z,25.30
2018-01-14T11:14:57.327Z,25.40
2018-01-14T11:17:23.898Z,27.03
2018-01-14T11:19:50.485Z,25.13
2018-01-14T11:22:17.054Z,32.27
2018-01-14T11:24:43.673Z,29.37
2018-01-14T11:27:10.247Z,23.70
2018-01-14T11:29:39.773Z,21.93
2018-01-14T11:32:07.171Z,28.43
2018-01-14T11:34:33.747Z,21.50
2018-01-14T11:37:00.327Z,28.77
2018-01-14T11:39:26.913Z,27.50
2018-01-14T11:41:53.495Z,25.57
2018-01-14T11:44:20.225Z,24.03
2018-01-14T11:46:46.779Z,36.93
2018-01-14T11:49:13.362Z,21.97
2018-01-14T11:51:40.600Z,27.13
2018-01-14T11:54:07.146Z,23.67
2018-01-14T11:56:33.719Z,24.30
2018-01-14T11:59:00.314Z,23.90
2018-01-14T12:01:26.895Z,25.90
2018-01-14T12:03:53.466Z,25.20
2018-01-14T12:06:20.372Z,25.47
2018-01-14T12:08:46.923Z,24.43
2018-01-14T12:11:13.499Z,27.73
2018-01-14T12:13:40.073Z,22.93
2018-01-14T12:16:06.874Z,23.47
2018-01-14T12:18:33.427Z,26.17
2018-01-14T12:21:00.167Z,23.30
2018-01-14T12:23:26.739Z,23.47
2018-01-14T12:25:53.319Z,24.53
2018-01-14T12:28:19.890Z,22.30
2018-01-14T12:30:46.481Z,30.10
2018-01-14T12:33:13.054Z,23.60
2018-01-14T12:35:39.627Z,25.00
2018-01-14T12:38:06.209Z,26.63
2018-01-14T12:40:32.778Z,26.10
2018-01-14T12:42:59.454Z,24.60
2018-01-14T12:45:26.093Z,25.63
2018-01-14T12:47:52.619Z,23.80
2018-01-14T12:50:19.319Z,24.40
2018-01-14T12:52:45.894Z,25.67
2018-01-14T12:55:12.467Z,23.53
2018-01-14T12:57:39.071Z,24.60
2018-01-14T13:00:05.648Z,25.03
2018-01-14T13:02:32.225Z,22.47
2018-01-14T13:04:58.907Z,23.50
2018-01-14T13:07:25.487Z,24.47
2018-01-14T13:09:52.060Z,27.10
2018-01-14T13:12:18.652Z,25.37
2018-01-14T13:14:45.218Z,23.50
2018-01-14T13:17:11.799Z,28.90
2018-01-14T13:19:38.378Z,25.07
2018-01-14T13:22:04.956Z,28.50
2018-01-14T13:24:31.540Z,30.30
2018-01-14T13:26:58.149Z,25.40
2018-01-14T13:29:24.727Z,30.30
2018-01-14T13:31:51.303Z,27.07
2018-01-14T13:34:17.899Z,27.63
2018-01-14T13:36:44.480Z,36.17
2018-01-14T13:39:11.060Z,26.60
2018-01-14T13:41:37.644Z,27.00
2018-01-14T13:44:04.218Z,26.50
2018-01-14T13:46:30.796Z,28.17
2018-01-14T13:48:57.405Z,26.83
2018-01-14T13:51:23.987Z,23.37
2018-01-14T13:53:50.922Z,24.10
2018-01-14T13:56:17.520Z,26.20
2018-01-14T13:58:44.197Z,25.27
2018-01-14T14:01:10.783Z,26.73
2018-01-14T14:03:37.359Z,24.53
2018-01-14T14:06:03.940Z,25.60
2018-01-14T14:08:30.547Z,26.77
2018-01-14T14:10:57.119Z,29.17
2018-01-14T14:13:23.701Z,29.37
2018-01-14T14:15:50.290Z,27.93
2018-01-14T14:18:16.868Z,24.70
2018-01-14T14:20:43.437Z,28.40
2018-01-14T14:23:10.039Z,29.70
2018-01-14T14:25:36.614Z,40.00
2018-01-14T14:28:03.192Z,30.10
2018-01-14T14:30:29.784Z,26.67
2018-01-14T14:32:56.366Z,29.17
2018-01-14T14:35:22.941Z,25.57
2018-01-14T14:37:49.528Z,25.53
2018-01-14T14:40:16.099Z,31.27
2018-01-14T14:42:42.674Z,25.03
2018-01-14T14:45:09.258Z,26.90
2018-01-14T14:47:35.846Z,30.20
2018-01-14T14:50:02.424Z,28.57
2018-01-14T14:52:28.997Z,28.83
2018-01-14T14:54:55.949Z,29.13
2018-01-14T14:57:22.531Z,33.90
2018-01-14T14:59:49.110Z,34.80
2018-01-14T15:02:15.799Z,27.40
2018-01-14T15:04:42.602Z,29.57
2018-01-14T15:07:09.184Z,29.30
2018-01-14T15:09:35.806Z,28.92
2018-01-14T15:12:02.392Z,32.47
2018-01-14T15:14:28.979Z,30.62
2018-01-14T15:16:55.671Z,27.50
2018-01-14T15:19:22.306Z,32.08
2018-01-14T15:21:54.497Z,33.60
2018-01-14T15:24:29.800Z,32.50
2018-01-14T15:27:02.072Z,29.17
2018-01-14T15:29:30.145Z,37.08
2018-01-14T15:32:02.359Z,30.40
2018-01-14T15:34:36.132Z,31.95
2018-01-14T15:40:01.248Z,27.98
2018-01-14T15:42:33.881Z,34.63
2018-01-14T15:57:06.435Z,29.42
2018-01-14T15:59:35.544Z,34.75
2018-01-14T16:02:05.148Z,31.30
2018-01-14T16:04:39.836Z,37.75
2018-01-14T16:07:06.532Z,25.55
2018-01-14T16:12:37.058Z,30.35
2018-01-14T16:15:03.711Z,37.03
2018-01-14T16:17:30.308Z,34.70
2018-01-14T16:19:56.916Z,32.03
2018-01-14T16:22:23.567Z,32.35
2018-01-14T16:24:50.163Z,30.75
2018-01-14T16:27:16.770Z,28.75
2018-01-14T16:29:43.367Z,34.75
2018-01-14T16:32:11.433Z,29.90
2018-01-14T16:34:38.143Z,35.97
2018-01-14T16:37:04.723Z,34.63
2018-01-14T16:39:31.299Z,31.83
2018-01-14T16:41:57.882Z,35.47
2018-01-14T16:44:24.498Z,31.87
2018-01-14T16:46:51.073Z,33.50
2018-01-14T16:49:17.652Z,37.83
2018-01-14T16:51:44.232Z,30.90
2018-01-14T16:54:10.999Z,37.03
2018-01-14T16:56:37.574Z,28.50
2018-01-14T16:59:04.149Z,35.00
2018-01-14T17:01:30.731Z,34.88
2018-01-14T17:03:57.311Z,28.60
2018-01-14T17:06:24.091Z,29.35
2018-01-14T17:08:50.664Z,29.45
2018-01-14T17:11:17.259Z,31.92
2018-01-14T17:13:43.838Z,29.80
2018-01-14T17:16:10.415Z,36.35
2018-01-14T17:18:37.016Z,27.45
2018-01-14T17:21:03.593Z,29.50
2018-01-14T17:23:30.237Z,35.55
2018-01-14T17:25:56.793Z,31.80
2018-01-14T17:28:23.367Z,25.70
2018-01-14T17:30:49.942Z,28.55
2018-01-14T17:33:16.550Z,33.00
2018-01-14T17:35:43.126Z,34.85
2018-01-14T17:38:09.716Z,35.45
2018-01-14T17:40:36.492Z,31.83
2018-01-14T17:43:03.084Z,30.92
2018-01-14T17:45:29.658Z,30.23
2018-01-14T17:47:56.251Z,33.97
2018-01-14T17:50:22.836Z,28.60
2018-01-14T17:53:14.069Z,33.03
2018-01-14T17:55:49.584Z,29.42
2018-01-14T18:00:56.923Z,36.25
2018-01-14T18:03:27.560Z,31.73
2018-01-14T18:05:57.826Z,32.63
2018-01-14T18:08:24.926Z,27.83
2018-01-14T18:13:39.952Z,30.45
2018-01-14T18:16:06.618Z,33.63
2018-01-14T18:18:33.247Z,31.42
2018-01-14T18:20:59.957Z,32.90
2018-01-14T18:23:26.850Z,25.45
2018-01-14T18:25:53.438Z,31.52
2018-01-14T18:28:20.040Z,32.47
2018-01-14T18:30:46.627Z,30.75
2018-01-14T18:33:13.220Z,28.23
2018-01-14T18:35:39.823Z,32.67
2018-01-14T18:38:06.427Z,28.87
2018-01-14T18:40:32.998Z,29.48
2018-01-14T18:42:59.590Z,27.62
2018-01-14T18:45:32.060Z,33.78
2018-01-14T18:47:58.659Z,32.65
2018-01-14T18:50:25.535Z,24.37
2018-01-14T18:52:52.122Z,30.77
2018-01-14T18:55:18.698Z,49.17
2018-01-14T18:57:45.313Z,30.25
2018-01-14T19:00:11.916Z,33.65
2018-01-14T19:02:38.507Z,29.35
2018-01-14T19:05:05.096Z,34.50
2018-01-14T19:07:31.672Z,32.33
2018-01-14T19:09:58.288Z,33.70
2018-01-14T19:12:24.867Z,32.80
2018-01-14T19:14:51.456Z,28.52
2018-01-14T19:17:18.147Z,31.17
2018-01-14T19:19:44.720Z,35.05
2018-01-14T19:22:11.532Z,34.83
2018-01-14T19:24:38.114Z,35.75
2018-01-14T19:27:04.731Z,29.75
2018-01-14T19:29:31.310Z,28.80
2018-01-14T19:31:57.891Z,32.50
2018-01-14T19:34:24.483Z,33.65
2018-01-14T19:36:51.312Z,40.28
2018-01-14T19:39:17.922Z,31.45
2018-01-14T19:41:44.498Z,33.33
2018-01-14T19:44:11.074Z,31.87
2018-01-14T19:46:37.660Z,28.33
2018-01-14T19:49:04.256Z,28.45
2018-01-14T19:51:30.847Z,29.23
2018-01-14T19:53:57.439Z,31.77
2018-01-14T19:56:24.126Z,30.83
2018-01-14T19:58:50.703Z,33.20
2018-01-14T20:01:17.282Z,31.60
2018-01-14T20:03:43.958Z,31.00
2018-01-14T20:06:10.542Z,34.53
2018-01-14T20:08:37.143Z,34.05
2018-01-14T20:11:03.823Z,36.30
2018-01-14T20:13:30.411Z,33.05
2018-01-14T20:15:56.991Z,33.22
2018-01-14T20:18:23.630Z,36.28
2018-01-14T20:20:50.171Z,31.20
2018-01-14T20:23:16.756Z,33.67
2018-01-14T20:25:43.351Z,32.90
2018-01-14T20:28:09.930Z,29.45
2018-01-14T20:30:36.508Z,33.20
2018-01-14T20:33:03.103Z,31.25
2018-01-14T20:35:29.678Z,34.13
2018-01-14T20:37:56.285Z,29.35
2018-01-14T20:40:22.866Z,30.60
2018-01-14T20:42:49.455Z,33.85
2018-01-14T20:45:16.026Z,27.42
2018-01-14T20:47:42.775Z,31.98
2018-01-14T20:50:09.354Z,31.62
2018-01-14T20:52:35.926Z,34.03
2018-01-14T20:55:02.539Z,31.15
2018-01-14T20:57:30.034Z,31.65
2018-01-14T20:59:56.609Z,29.50
2018-01-14T21:02:23.195Z,31.45
2018-01-14T21:04:49.791Z,34.65
2018-01-14T21:07:16.374Z,35.60
2018-01-14T21:09:42.948Z,29.45
2018-01-14T21:12:09.543Z,34.88
2018-01-14T21:14:36.114Z,46.33
2018-01-14T21:17:02.700Z,35.70
2018-01-14T21:19:29.562Z,32.85
2018-01-14T21:21:56.239Z,34.92
2018-01-14T21:24:22.826Z,37.00
2018-01-14T21:26:49.426Z,33.67
2018-01-14T21:29:16.009Z,33.50
2018-01-14T21:31:42.602Z,35.13
2018-01-14T21:34:09.207Z,29.58
2018-01-14T21:36:35.792Z,30.48
2018-01-14T21:39:02.394Z,36.25
2018-01-14T21:41:28.995Z,34.83
2018-01-14T21:43:55.578Z,32.97
2018-01-14T21:46:22.163Z,33.92
2018-01-14T21:48:48.773Z,34.65
2018-01-14T21:51:15.360Z,34.35
2018-01-14T21:53:41.974Z,32.95
2018-01-14T21:56:08.582Z,35.70
2018-01-14T21:58:35.174Z,32.25
2018-01-14T22:01:01.777Z,32.53
2018-01-14T22:03:28.359Z,34.70
2018-01-14T22:05:54.948Z,31.52
2018-01-14T22:08:21.530Z,49.08
2018-01-14T22:10:48.446Z,33.38
2018-01-14T22:13:15.020Z,36.67
2018-01-14T22:15:41.617Z,33.17
2018-01-14T22:18:08.251Z,33.25
2018-01-14T22:20:34.806Z,34.60
2018-01-14T22:23:01.413Z,43.20
2018-01-14T22:25:27.987Z,36.85
2018-01-14T22:27:54.578Z,31.35
2018-01-14T22:30:21.203Z,32.33
2018-01-14T22:32:47.790Z,33.90
2018-01-14T22:35:14.379Z,30.67
2018-01-14T22:37:40.992Z,30.88
2018-01-14T22:40:07.584Z,35.38
2018-01-14T22:42:34.176Z,30.98
2018-01-14T22:45:00.751Z,30.55
2018-01-14T22:47:27.352Z,32.03
2018-01-14T22:49:53.936Z,32.30
2018-01-14T22:52:20.519Z,38.33
2018-01-14T22:54:47.124Z,32.05
2018-01-14T22:57:13.695Z,35.78
2018-01-14T22:59:40.275Z,37.85
2018-01-14T23:04:40.207Z,33.40
2018-01-14T23:07:06.794Z,33.45
2018-01-14T23:09:33.378Z,40.63
2018-01-14T23:11:59.966Z,33.25
2018-01-14T23:14:26.555Z,37.17
2018-01-14T23:16:53.138Z,37.45
2018-01-14T23:19:19.717Z,48.63
2018-01-14T23:21:46.299Z,33.67
2018-01-14T23:24:12.937Z,36.25
2018-01-14T23:26:39.514Z,33.25
2018-01-14T23:29:06.092Z,33.47
2018-01-14T23:31:33.162Z,33.72
2018-01-14T23:33:59.743Z,33.85
2018-01-14T23:36:26.318Z,36.35
2018-01-14T23:38:52.907Z,31.75
2018-01-14T23:41:19.483Z,34.80
2018-01-14T23:43:46.062Z,39.40
2018-01-14T23:46:12.666Z,34.00
2018-01-14T23:48:39.252Z,34.63
2018-01-14T23:51:05.822Z,38.38
2018-01-14T23:53:32.406Z,37.55
2018-01-14T23:55:58.992Z,34.28
2018-01-14T23:58:25.599Z,44.30
